createdAt,value
2023-04-11T00:00:14.601Z,4.88
2023-04-11T00:02:41.808Z,4.65
2023-04-11T00:05:10.001Z,3.92
2023-04-11T00:07:37.119Z,5.22
2023-04-11T00:10:04.841Z,4.60
2023-04-11T00:12:32.355Z,4.65
2023-04-11T00:14:59.412Z,4.82
2023-04-11T00:17:31.516Z,4.20
2023-04-11T00:20:01.862Z,4.90
2023-04-11T00:22:29.072Z,4.43
2023-04-11T00:24:56.191Z,5.78
2023-04-11T00:27:23.375Z,5.40
2023-04-11T00:29:50.555Z,4.18
2023-04-11T00:32:17.669Z,4.28
2023-04-11T00:34:44.709Z,3.88
2023-04-11T00:37:12.978Z,4.43
2023-04-11T00:39:41.006Z,5.70
2023-04-11T00:42:08.669Z,4.70
2023-04-11T00:44:36.529Z,5.03
2023-04-11T00:47:07.048Z,4.47
2023-04-11T00:49:34.797Z,4.28
2023-04-11T00:52:03.231Z,4.88
2023-04-11T00:54:31.334Z,5.40
2023-04-11T00:57:02.889Z,4.28
2023-04-11T00:59:31.521Z,3.90
2023-04-11T01:01:59.820Z,4.38
2023-04-11T01:04:27.025Z,4.47
2023-04-11T01:06:58.787Z,4.22
2023-04-11T01:09:28.691Z,4.18
2023-04-11T01:11:56.634Z,4.10
2023-04-11T01:14:25.899Z,4.30
2023-04-11T01:16:53.281Z,4.32
2023-04-11T01:19:22.006Z,3.92
2023-04-11T01:21:50.990Z,4.90
2023-04-11T01:24:18.366Z,4.05
2023-04-11T01:26:45.893Z,4.78
2023-04-11T01:29:13.147Z,3.65
2023-04-11T01:31:40.180Z,4.43
2023-04-11T01:34:08.308Z,3.55
2023-04-11T01:36:36.773Z,4.55
2023-04-11T01:39:04.418Z,3.47
2023-04-11T01:41:32.633Z,5.13
2023-04-11T01:43:59.705Z,4.25
2023-04-11T01:46:27.058Z,4.93
2023-04-11T01:48:56.566Z,4.68
2023-04-11T01:51:23.922Z,3.95
2023-04-11T01:53:51.155Z,4.47
2023-04-11T01:56:18.231Z,4.82
2023-04-11T01:58:45.386Z,4.45
2023-04-11T02:01:13.536Z,4.05
2023-04-11T02:03:40.911Z,3.90
2023-04-11T02:06:08.223Z,5.47
2023-04-11T02:08:36.070Z,4.10
2023-04-11T02:11:03.114Z,3.72
2023-04-11T02:13:30.432Z,4.40
2023-04-11T02:15:57.545Z,4.60
2023-04-11T02:18:24.658Z,4.97
2023-04-11T02:20:53.355Z,4.18
2023-04-11T02:23:20.476Z,3.45
2023-04-11T02:25:47.569Z,3.17
2023-04-11T02:28:14.665Z,5.00
2023-04-11T02:30:41.791Z,4.25
2023-04-11T02:33:09.808Z,5.30
2023-04-11T02:35:36.954Z,4.30
2023-04-11T02:38:04.013Z,3.08
2023-04-11T02:40:31.065Z,5.95
2023-04-11T02:42:58.131Z,3.30
2023-04-11T02:45:26.101Z,3.55
2023-04-11T02:47:53.238Z,3.45
2023-04-11T02:50:20.415Z,4.93
2023-04-11T02:52:49.437Z,3.90
2023-04-11T02:55:16.531Z,3.50
2023-04-11T02:57:44.385Z,3.53
2023-04-11T03:00:11.989Z,3.60
2023-04-11T03:02:39.244Z,3.85
2023-04-11T03:05:07.410Z,3.40
2023-04-11T03:07:34.433Z,3.15
2023-04-11T03:10:01.656Z,4.40
2023-04-11T03:12:28.755Z,4.10
2023-04-11T03:14:55.934Z,3.80
2023-04-11T03:17:22.990Z,3.65
2023-04-11T03:19:50.026Z,3.53
2023-04-11T03:22:17.855Z,4.13
2023-04-11T03:24:44.942Z,4.45
2023-04-11T03:27:12.001Z,3.53
2023-04-11T03:29:39.094Z,3.83
2023-04-11T03:32:06.512Z,3.72
2023-04-11T03:34:34.118Z,4.03
2023-04-11T03:37:01.218Z,3.72
2023-04-11T03:39:28.300Z,4.28
2023-04-11T03:41:55.936Z,3.95
2023-04-11T03:44:23.020Z,3.53
2023-04-11T03:46:50.593Z,3.40
2023-04-11T03:49:17.653Z,3.60
2023-04-11T03:51:44.729Z,4.18
2023-04-11T03:54:11.759Z,3.53
2023-04-11T03:56:38.801Z,3.60
2023-04-11T03:59:05.858Z,3.15
2023-04-11T04:01:32.940Z,4.28
2023-04-11T04:04:01.060Z,3.30
2023-04-11T04:06:28.688Z,4.40
2023-04-11T04:08:56.495Z,3.17
2023-04-11T04:11:23.580Z,3.88
2023-04-11T04:13:50.652Z,3.92
2023-04-11T04:16:17.809Z,3.78
2023-04-11T04:18:44.872Z,3.05
2023-04-11T04:21:12.704Z,3.10
2023-04-11T04:23:47.653Z,4.30
2023-04-11T04:26:16.320Z,4.43
2023-04-11T04:28:46.172Z,3.30
2023-04-11T04:31:15.635Z,3.92
2023-04-11T04:33:46.712Z,3.22
2023-04-11T04:36:13.877Z,6.65
2023-04-11T04:38:42.354Z,4.63
2023-04-11T04:41:15.300Z,5.78
2023-04-11T04:43:42.769Z,5.32
2023-04-11T04:46:11.162Z,4.65
2023-04-11T04:48:38.291Z,4.72
2023-04-11T04:51:07.118Z,4.07
2023-04-11T04:53:35.017Z,4.63
2023-04-11T04:56:02.533Z,4.15
2023-04-11T04:58:29.598Z,4.43
2023-04-11T05:00:56.780Z,4.22
2023-04-11T05:03:24.508Z,4.45
2023-04-11T05:05:51.717Z,4.72
2023-04-11T05:08:21.088Z,5.72
2023-04-11T05:10:48.270Z,5.15
2023-04-11T05:13:15.574Z,5.05
2023-04-11T05:15:49.266Z,4.95
2023-04-11T05:18:16.506Z,6.68
2023-04-11T05:20:43.546Z,5.47
2023-04-11T05:23:10.731Z,6.30
2023-04-11T05:25:37.868Z,8.15
2023-04-11T05:28:05.481Z,7.25
2023-04-11T05:30:32.679Z,8.77
2023-04-11T05:32:59.904Z,7.28
2023-04-11T05:35:27.140Z,7.50
2023-04-11T05:37:55.497Z,8.40
2023-04-11T05:40:22.613Z,6.20
2023-04-11T05:42:50.808Z,7.72
2023-04-11T05:45:17.844Z,6.40
2023-04-11T05:47:45.010Z,8.02
2023-04-11T05:50:12.526Z,10.48
2023-04-11T05:52:39.614Z,7.18
2023-04-11T05:55:07.461Z,8.23
2023-04-11T05:57:34.578Z,7.30
2023-04-11T06:00:16.489Z,8.82
2023-04-11T06:02:44.538Z,10.35
2023-04-11T06:05:12.435Z,10.98
2023-04-11T06:07:40.091Z,9.27
2023-04-11T06:10:08.282Z,9.88
2023-04-11T06:12:35.842Z,8.80
2023-04-11T06:15:03.400Z,10.35
2023-04-11T06:17:30.599Z,9.38
2023-04-11T06:19:58.044Z,8.63
2023-04-11T06:22:26.240Z,7.15
2023-04-11T06:24:53.655Z,7.65
2023-04-11T06:27:20.947Z,8.02
2023-04-11T06:29:48.042Z,9.45
2023-04-11T06:32:15.479Z,7.38
2023-04-11T06:34:43.326Z,8.18
2023-04-11T06:37:10.912Z,9.75
2023-04-11T06:39:38.050Z,11.90
2023-04-11T06:42:05.198Z,8.88
2023-04-11T06:44:32.333Z,8.55
2023-04-11T06:47:00.675Z,7.97
2023-04-11T06:49:31.553Z,10.63
2023-04-11T06:51:59.602Z,8.95
2023-04-11T06:54:27.113Z,12.10
2023-04-11T06:56:54.266Z,11.45
2023-04-11T06:59:22.210Z,7.72
2023-04-11T07:01:50.586Z,8.02
2023-04-11T07:04:18.542Z,8.55
2023-04-11T07:06:46.297Z,8.75
2023-04-11T07:09:13.825Z,10.77
2023-04-11T07:11:41.641Z,8.55
2023-04-11T07:14:08.656Z,11.63
2023-04-11T07:16:35.919Z,9.30
2023-04-11T07:19:03.659Z,10.63
2023-04-11T07:21:32.652Z,9.05
2023-04-11T07:24:00.898Z,19.27
2023-04-11T07:26:32.589Z,8.48
2023-04-11T07:29:00.218Z,8.43
2023-04-11T07:31:27.695Z,13.02
2023-04-11T07:33:54.967Z,9.73
2023-04-11T07:36:22.259Z,9.38
2023-04-11T07:38:49.440Z,10.00
2023-04-11T07:41:16.582Z,9.32
2023-04-11T07:43:44.215Z,8.85
2023-04-11T07:46:12.625Z,10.65
2023-04-11T07:48:39.795Z,9.45
2023-04-11T07:51:07.022Z,9.05
2023-04-11T07:53:34.118Z,7.15
2023-04-11T07:56:01.674Z,7.72
2023-04-11T07:58:28.859Z,8.43
2023-04-11T08:00:57.044Z,7.25
2023-04-11T08:03:24.240Z,8.65
2023-04-11T08:05:52.391Z,7.57
2023-04-11T08:08:20.279Z,8.75
2023-04-11T08:10:47.363Z,7.28
2023-04-11T08:13:14.436Z,9.27
2023-04-11T08:15:41.780Z,9.70
2023-04-11T08:18:11.892Z,7.13
2023-04-11T08:20:41.053Z,6.30
2023-04-11T08:23:10.661Z,7.45
2023-04-11T08:25:39.252Z,7.45
2023-04-11T08:28:06.533Z,7.00
2023-04-11T08:30:33.756Z,9.23
2023-04-11T08:33:02.040Z,19.63
2023-04-11T08:35:29.456Z,8.63
2023-04-11T08:37:56.480Z,6.63
2023-04-11T08:40:25.163Z,11.57
2023-04-11T08:42:59.824Z,7.40
2023-04-11T08:45:27.734Z,11.50
2023-04-11T08:47:55.071Z,6.63
2023-04-11T08:50:22.257Z,6.65
2023-04-11T08:52:51.745Z,10.40
2023-04-11T08:55:18.986Z,11.77
2023-04-11T08:57:46.107Z,6.35
2023-04-11T09:00:19.281Z,6.72
2023-04-11T09:03:02.826Z,8.20
2023-04-11T09:05:32.627Z,10.95
2023-04-11T09:08:02.161Z,7.03
2023-04-11T09:10:29.773Z,8.57
2023-04-11T09:12:58.385Z,6.90
2023-04-11T09:15:28.016Z,5.97
2023-04-11T09:17:57.669Z,6.97
2023-04-11T09:20:30.408Z,7.22
2023-04-11T09:23:01.742Z,7.18
2023-04-11T09:25:29.014Z,7.90
2023-04-11T09:28:10.883Z,6.45
2023-04-11T09:30:37.928Z,5.95
2023-04-11T09:33:23.744Z,6.38
2023-04-11T09:35:52.842Z,6.07
2023-04-11T09:38:35.132Z,6.80
2023-04-11T09:41:04.526Z,6.85
2023-04-11T09:43:52.417Z,6.15
2023-04-11T09:46:21.474Z,6.00
2023-04-11T09:48:49.864Z,5.97
2023-04-11T09:51:32.340Z,5.55
2023-04-11T09:54:07.176Z,5.78
2023-04-11T09:56:35.093Z,6.35
2023-04-11T09:59:04.047Z,6.57
2023-04-11T10:01:31.336Z,5.95
2023-04-11T10:03:58.797Z,6.15
2023-04-11T10:06:34.149Z,4.65
2023-04-11T10:09:08.226Z,5.90
2023-04-11T10:11:36.145Z,7.25
2023-04-11T10:14:03.869Z,5.38
2023-04-11T10:16:34.379Z,8.40
2023-04-11T10:19:23.073Z,5.05
2023-04-11T10:21:50.215Z,5.53
2023-04-11T10:24:20.295Z,5.55
2023-04-11T10:29:46.452Z,4.40
2023-04-11T10:32:21.523Z,5.95
2023-04-11T10:35:22.765Z,5.22
2023-04-11T10:37:50.780Z,5.70
2023-04-11T10:40:20.658Z,5.30
2023-04-11T10:42:48.486Z,5.60
2023-04-11T10:45:30.443Z,4.95
2023-04-11T10:48:04.483Z,4.25
2023-04-11T10:50:37.629Z,5.18
2023-04-11T10:53:09.676Z,5.25
2023-04-11T10:55:51.107Z,4.60
2023-04-11T10:58:21.657Z,6.88
2023-04-11T11:01:25.707Z,4.70
2023-04-11T11:04:01.699Z,5.80
2023-04-11T11:06:29.613Z,5.82
2023-04-11T11:08:57.977Z,5.53
2023-04-11T11:11:25.688Z,6.85
2023-04-11T11:13:56.494Z,4.68
2023-04-11T11:16:26.074Z,4.18
2023-04-11T11:18:59.682Z,4.80
2023-04-11T11:21:28.992Z,5.00
2023-04-11T11:23:59.268Z,4.45
2023-04-11T11:26:44.213Z,5.47
2023-04-11T11:29:12.299Z,4.32
2023-04-11T11:31:42.168Z,5.38
2023-04-11T11:36:50.763Z,5.47
2023-04-11T11:39:19.466Z,4.22
2023-04-11T11:41:47.948Z,4.72
2023-04-11T11:44:24.009Z,4.00
2023-04-11T11:47:05.791Z,4.32
2023-04-11T11:49:54.647Z,4.47
2023-04-11T11:52:43.704Z,4.32
2023-04-11T11:55:32.158Z,4.93
2023-04-11T11:58:02.308Z,4.80
2023-04-11T12:00:35.036Z,3.95
2023-04-11T12:03:03.061Z,4.07
2023-04-11T12:05:32.649Z,3.65
2023-04-11T12:08:02.197Z,4.88
2023-04-11T12:10:41.655Z,6.55
2023-04-11T12:13:14.002Z,6.65
2023-04-11T12:15:43.590Z,9.73
2023-04-11T12:18:10.764Z,5.40
2023-04-11T12:20:38.737Z,3.38
2023-04-11T12:23:05.907Z,3.42
2023-04-11T12:25:33.096Z,3.78
2023-04-11T12:28:00.146Z,4.28
2023-04-11T12:30:28.252Z,3.85
2023-04-11T12:32:57.305Z,5.18
2023-04-11T12:35:24.496Z,9.45
2023-04-11T12:37:51.781Z,4.13
2023-04-11T12:40:19.082Z,4.10
2023-04-11T12:45:18.277Z,3.75
2023-04-11T12:47:45.490Z,4.13
2023-04-11T12:50:12.817Z,4.57
2023-04-11T12:52:39.988Z,3.17
2023-04-11T12:55:08.924Z,5.30
2023-04-11T12:57:37.806Z,5.43
2023-04-11T13:00:07.365Z,4.80
2023-04-11T13:02:42.289Z,6.53
2023-04-11T13:05:14.646Z,3.40
2023-04-11T13:07:42.837Z,3.65
2023-04-11T13:10:10.251Z,5.10
2023-04-11T13:12:41.773Z,5.28
2023-04-11T13:15:12.410Z,3.53
2023-04-11T13:17:39.890Z,4.13
2023-04-11T13:20:10.341Z,3.50
2023-04-11T13:22:38.750Z,6.72
2023-04-11T13:25:07.083Z,3.70
2023-04-11T13:27:34.551Z,3.53
2023-04-11T13:30:01.772Z,5.47
2023-04-11T13:32:28.904Z,3.30
2023-04-11T13:34:56.147Z,5.07
2023-04-11T13:37:23.913Z,3.42
2023-04-11T13:39:51.128Z,4.82
2023-04-11T13:42:18.206Z,3.58
2023-04-11T13:44:45.522Z,3.22
2023-04-11T13:47:12.565Z,3.40
2023-04-11T13:49:40.484Z,2.90
2023-04-11T13:52:07.622Z,3.22
2023-04-11T13:54:34.675Z,3.45
2023-04-11T13:57:03.591Z,3.33
2023-04-11T13:59:30.953Z,3.35
2023-04-11T14:01:58.540Z,3.53
2023-04-11T14:04:25.689Z,4.32
2023-04-11T14:06:54.028Z,4.10
2023-04-11T14:09:21.604Z,4.07
2023-04-11T14:11:49.814Z,3.88
2023-04-11T14:14:17.822Z,3.22
2023-04-11T14:16:44.958Z,5.30
2023-04-11T14:19:12.030Z,4.15
2023-04-11T14:21:39.169Z,3.30
2023-04-11T14:24:06.797Z,3.60
2023-04-11T14:26:34.057Z,2.92
2023-04-11T14:29:01.136Z,4.50
2023-04-11T14:31:28.621Z,3.30
2023-04-11T14:33:56.012Z,3.45
2023-04-11T14:36:23.307Z,4.65
2023-04-11T14:38:50.808Z,3.78
2023-04-11T14:41:19.486Z,4.65
2023-04-11T14:43:46.609Z,4.22
2023-04-11T14:46:13.736Z,4.60
2023-04-11T14:48:41.077Z,4.88
2023-04-11T14:51:09.053Z,6.63
2023-04-11T14:53:36.072Z,7.30
2023-04-11T14:56:06.773Z,6.25
2023-04-11T14:58:34.229Z,7.57
2023-04-11T15:01:01.332Z,4.45
2023-04-11T15:03:28.724Z,5.07
2023-04-11T15:05:56.104Z,7.00
2023-04-11T15:08:23.154Z,4.63
2023-04-11T15:10:54.149Z,5.35
2023-04-11T15:13:27.095Z,5.88
2023-04-11T15:16:01.632Z,6.88
2023-04-11T15:18:30.610Z,6.15
2023-04-11T15:21:00.102Z,3.67
2023-04-11T15:23:28.041Z,8.18
2023-04-11T15:25:57.164Z,5.68
2023-04-11T15:28:25.651Z,9.65
2023-04-11T15:30:54.483Z,7.68
2023-04-11T15:33:24.432Z,17.90
2023-04-11T15:35:53.896Z,5.82
2023-04-11T15:38:21.903Z,7.75
2023-04-11T15:40:54.328Z,7.70
2023-04-11T15:43:22.877Z,5.45
2023-04-11T15:45:50.596Z,10.95
2023-04-11T15:48:18.184Z,6.72
2023-04-11T15:50:45.816Z,6.93
2023-04-11T15:53:13.110Z,8.70
2023-04-11T15:55:41.617Z,3.92
2023-04-11T15:58:08.929Z,6.28
2023-04-11T16:00:37.099Z,5.78
2023-04-11T16:03:06.085Z,5.38
2023-04-11T16:05:34.029Z,7.10
2023-04-11T16:08:01.596Z,5.00
2023-04-11T16:10:30.259Z,4.35
2023-04-11T16:12:57.436Z,5.65
2023-04-11T16:15:24.459Z,7.35
2023-04-11T16:17:52.451Z,8.18
2023-04-11T16:20:21.297Z,4.75
2023-04-11T16:22:48.643Z,7.35
2023-04-11T16:25:18.859Z,6.70
2023-04-11T16:30:13.054Z,3.63
2023-04-11T16:32:40.147Z,5.82
2023-04-11T16:35:07.421Z,6.10
2023-04-11T16:37:34.893Z,4.00
2023-04-11T16:40:06.775Z,5.47
2023-04-11T16:42:33.941Z,4.80
2023-04-11T16:45:01.001Z,6.13
2023-04-11T16:47:28.112Z,5.82
2023-04-11T16:49:56.224Z,3.28
2023-04-11T16:52:23.623Z,4.55
2023-04-11T16:54:51.790Z,4.10
2023-04-11T16:57:18.942Z,2.85
2023-04-11T16:59:46.229Z,3.88
2023-04-11T17:02:13.988Z,3.17
2023-04-11T17:04:41.617Z,4.45
2023-04-11T17:07:09.675Z,5.30
2023-04-11T17:09:36.831Z,4.93
2023-04-11T17:12:04.173Z,3.13
2023-04-11T17:14:35.069Z,3.92
2023-04-11T17:17:02.269Z,4.40
2023-04-11T17:19:29.597Z,5.05
2023-04-11T17:21:57.651Z,3.63
2023-04-11T17:24:25.896Z,10.18
2023-04-11T17:26:53.504Z,3.25
2023-04-11T17:29:20.622Z,3.20
2023-04-11T17:31:48.012Z,4.28
2023-04-11T17:34:15.140Z,2.63
2023-04-11T17:36:43.167Z,5.00
2023-04-11T17:39:17.184Z,3.17
2023-04-11T17:41:45.865Z,2.88
2023-04-11T17:44:13.632Z,4.25
2023-04-11T17:46:41.305Z,4.85
2023-04-11T17:49:08.558Z,2.65
2023-04-11T17:51:38.969Z,5.68
2023-04-11T17:54:10.125Z,2.38
2023-04-11T17:56:37.297Z,4.13
2023-04-11T17:59:04.400Z,2.60
2023-04-11T18:01:32.344Z,5.95
2023-04-11T18:04:01.727Z,2.80
2023-04-11T18:06:29.839Z,2.97
2023-04-11T18:08:57.938Z,3.10
2023-04-11T18:11:25.031Z,2.80
2023-04-11T18:13:52.206Z,2.35
2023-04-11T18:16:19.547Z,2.60
2023-04-11T18:18:47.807Z,2.60
2023-04-11T18:21:16.586Z,2.50
2023-04-11T18:23:46.722Z,2.50
2023-04-11T18:26:13.817Z,2.90
2023-04-11T18:28:41.105Z,2.20
2023-04-11T18:31:08.843Z,2.15
2023-04-11T18:33:37.140Z,1.95
2023-04-11T18:36:06.445Z,2.20
2023-04-11T18:38:33.622Z,2.40
2023-04-11T18:41:05.856Z,2.25
2023-04-11T18:43:34.169Z,4.03
2023-04-11T18:46:04.367Z,2.30
2023-04-11T18:48:31.832Z,2.00
2023-04-11T18:51:01.176Z,2.13
2023-04-11T18:53:30.209Z,3.25
2023-04-11T18:55:58.142Z,3.03
2023-04-11T18:58:26.893Z,1.98
2023-04-11T19:00:55.157Z,2.28
2023-04-11T19:03:23.730Z,1.73
2023-04-11T19:05:54.340Z,2.42
2023-04-11T19:08:22.658Z,2.47
2023-04-11T19:10:50.912Z,5.93
2023-04-11T19:13:19.840Z,2.15
2023-04-11T19:15:50.068Z,2.47
2023-04-11T19:18:17.163Z,2.08
2023-04-11T19:20:44.208Z,2.92
2023-04-11T19:23:11.498Z,2.00
2023-04-11T19:25:39.696Z,2.00
2023-04-11T19:28:06.898Z,1.63
2023-04-11T19:30:35.181Z,2.33
2023-04-11T19:33:02.460Z,2.25
2023-04-11T19:35:29.758Z,2.10
2023-04-11T19:38:01.723Z,1.52
2023-04-11T19:40:29.580Z,2.03
2023-04-11T19:42:56.664Z,1.65
2023-04-11T19:45:23.785Z,2.03
2023-04-11T19:47:51.075Z,1.90
2023-04-11T19:50:18.645Z,2.85
2023-04-11T19:52:45.780Z,1.65
2023-04-11T19:55:12.962Z,1.73
2023-04-11T19:57:41.048Z,1.58
2023-04-11T20:00:13.962Z,1.60
2023-04-11T20:02:48.261Z,2.35
2023-04-11T20:05:17.511Z,2.42
2023-04-11T20:07:45.827Z,1.80
2023-04-11T20:10:14.556Z,1.75
2023-04-11T20:12:41.923Z,2.10
2023-04-11T20:15:09.585Z,1.70
2023-04-11T20:17:36.821Z,1.45
2023-04-11T20:20:08.744Z,1.77
2023-04-11T20:22:38.391Z,1.70
2023-04-11T20:25:07.633Z,1.60
2023-04-11T20:27:34.822Z,1.33
2023-04-11T20:30:06.959Z,1.38
2023-04-11T20:32:34.116Z,1.65
2023-04-11T20:35:01.743Z,1.67
2023-04-11T20:37:32.010Z,1.67
2023-04-11T20:39:59.310Z,1.17
2023-04-11T20:42:28.084Z,1.00
2023-04-11T20:45:03.918Z,2.67
2023-04-11T20:47:31.026Z,1.42
2023-04-11T20:50:04.014Z,2.67
2023-04-11T20:52:32.858Z,1.35
2023-04-11T20:55:01.144Z,1.10
2023-04-11T20:57:30.605Z,1.35
2023-04-11T20:59:58.191Z,1.33
2023-04-11T21:02:26.371Z,1.48
2023-04-11T21:04:54.185Z,1.30
2023-04-11T21:07:21.578Z,1.75
2023-04-11T21:09:49.630Z,1.50
2023-04-11T21:12:16.679Z,1.60
2023-04-11T21:14:44.143Z,2.13
2023-04-11T21:17:11.505Z,1.20
2023-04-11T21:19:39.019Z,1.33
2023-04-11T21:22:06.588Z,1.00
2023-04-11T21:24:34.803Z,1.27
2023-04-11T21:27:02.623Z,4.28
2023-04-11T21:29:29.961Z,1.08
2023-04-11T21:31:57.016Z,1.35
2023-04-11T21:34:24.099Z,2.38
2023-04-11T21:36:51.363Z,1.52
2023-04-11T21:39:19.735Z,0.93
2023-04-11T21:41:46.790Z,1.48
2023-04-11T21:44:13.840Z,1.17
2023-04-11T21:46:41.236Z,1.52
2023-04-11T21:49:08.297Z,1.05
2023-04-11T21:51:36.330Z,1.02
2023-04-11T21:54:06.574Z,1.02
2023-04-11T21:56:33.617Z,0.80
2023-04-11T21:59:00.648Z,0.90
2023-04-11T22:01:29.232Z,0.82
2023-04-11T22:03:59.405Z,0.82
2023-04-11T22:08:53.850Z,1.08
2023-04-11T22:11:20.918Z,0.80
2023-04-11T22:13:48.850Z,1.13
2023-04-11T22:16:15.880Z,1.08
2023-04-11T22:18:49.842Z,1.15
2023-04-11T22:21:21.444Z,1.10
2023-04-11T22:23:54.598Z,1.40
2023-04-11T22:26:35.260Z,0.98
2023-04-11T22:34:08.420Z,1.60
2023-04-11T22:36:35.983Z,1.90
2023-04-11T22:39:05.031Z,0.82
2023-04-11T22:41:33.359Z,0.70
2023-04-11T22:44:01.547Z,0.55
2023-04-11T22:46:34.044Z,0.95
2023-04-11T22:49:01.106Z,0.77
2023-04-11T22:51:30.306Z,1.15
2023-04-11T22:53:57.892Z,0.70
2023-04-11T22:56:25.216Z,0.68
2023-04-11T22:58:52.841Z,0.68
2023-04-11T23:01:20.039Z,0.50
2023-04-11T23:03:47.591Z,0.70
2023-04-11T23:06:14.805Z,1.25
2023-04-11T23:08:42.328Z,1.20
2023-04-11T23:11:09.369Z,0.65
2023-04-11T23:13:36.879Z,0.80
2023-04-11T23:16:04.051Z,0.70
2023-04-11T23:18:32.068Z,0.60
2023-04-11T23:20:59.880Z,0.60
2023-04-11T23:23:27.973Z,0.70
2023-04-11T23:25:54.993Z,0.75
2023-04-11T23:28:24.211Z,0.50
2023-04-11T23:30:51.480Z,1.15
2023-04-11T23:33:18.862Z,0.90
2023-04-11T23:35:47.011Z,0.60
2023-04-11T23:38:13.994Z,0.50
2023-04-11T23:40:41.056Z,0.57
2023-04-11T23:43:08.728Z,2.40
2023-04-11T23:45:35.902Z,0.50
2023-04-11T23:48:03.006Z,0.40
2023-04-11T23:50:30.067Z,0.82
2023-04-11T23:52:57.207Z,0.60
2023-04-11T23:55:25.179Z,0.50
2023-04-11T23:57:52.246Z,0.93
